createdAt,value
2019-01-18T00:00:46.637Z,2.36
2019-01-18T00:03:16.159Z,2.37
2019-01-18T00:05:45.697Z,2.42
2019-01-18T00:08:15.245Z,2.45
2019-01-18T00:10:44.775Z,2.44
2019-01-18T00:13:14.324Z,2.45
2019-01-18T00:15:43.857Z,2.44
2019-01-18T00:18:13.407Z,2.35
2019-01-18T00:20:42.936Z,2.31
2019-01-18T00:23:12.478Z,2.34
2019-01-18T00:25:42.009Z,2.34
2019-01-18T00:28:11.571Z,2.38
2019-01-18T00:30:41.186Z,2.32
2019-01-18T00:33:10.964Z,2.26
2019-01-18T00:35:40.520Z,2.32
2019-01-18T00:38:10.074Z,2.30
2019-01-18T00:40:39.622Z,2.24
2019-01-18T00:43:09.158Z,2.31
2019-01-18T00:45:38.767Z,2.36
2019-01-18T00:48:09.700Z,2.25
2019-01-18T00:50:39.246Z,2.27
2019-01-18T00:53:08.774Z,2.14
2019-01-18T00:55:38.404Z,2.07
2019-01-18T00:58:07.980Z,2.04
2019-01-18T01:00:37.552Z,1.94
2019-01-18T01:03:07.107Z,2.00
2019-01-18T01:05:36.633Z,1.95
2019-01-18T01:08:06.422Z,2.00
2019-01-18T01:10:35.992Z,1.90
2019-01-18T01:13:05.863Z,1.88
2019-01-18T01:15:35.450Z,1.90
2019-01-18T01:18:05.189Z,1.89
2019-01-18T01:20:34.713Z,1.93
2019-01-18T01:23:04.237Z,1.93
2019-01-18T01:25:33.786Z,1.89
2019-01-18T01:28:03.331Z,1.93
2019-01-18T01:30:32.898Z,1.96
2019-01-18T01:33:02.491Z,1.95
2019-01-18T01:35:32.013Z,1.88
2019-01-18T01:38:01.574Z,1.85
2019-01-18T01:40:31.114Z,1.90
2019-01-18T01:43:06.447Z,1.93
2019-01-18T01:45:35.964Z,1.83
2019-01-18T01:48:05.657Z,1.87
2019-01-18T01:50:35.219Z,1.87
2019-01-18T01:53:04.839Z,1.83
2019-01-18T01:55:34.377Z,1.85
2019-01-18T01:58:05.088Z,1.82
2019-01-18T02:00:34.701Z,1.78
2019-01-18T02:03:04.300Z,1.77
2019-01-18T02:05:33.856Z,1.76
2019-01-18T02:08:03.395Z,1.78
2019-01-18T02:10:33.003Z,1.81
2019-01-18T02:13:02.553Z,1.82
2019-01-18T02:15:32.103Z,1.82
2019-01-18T02:18:01.646Z,1.76
2019-01-18T02:20:31.185Z,1.75
2019-01-18T02:23:03.678Z,1.58
2019-01-18T02:25:33.267Z,1.62
2019-01-18T02:28:04.639Z,1.66
2019-01-18T02:30:34.461Z,1.70
2019-01-18T02:33:03.998Z,1.76
2019-01-18T02:35:33.549Z,1.78
2019-01-18T02:38:03.070Z,1.67
2019-01-18T02:40:32.698Z,1.70
2019-01-18T02:43:02.241Z,1.69
2019-01-18T02:45:31.782Z,1.66
2019-01-18T02:48:01.328Z,1.58
2019-01-18T02:50:30.863Z,1.67
2019-01-18T02:53:00.425Z,1.62
2019-01-18T02:55:29.959Z,1.65
2019-01-18T02:57:59.483Z,1.71
2019-01-18T03:00:29.042Z,1.77
2019-01-18T03:02:58.640Z,1.81
2019-01-18T03:05:28.349Z,1.83
2019-01-18T03:07:57.884Z,1.79
2019-01-18T03:10:30.443Z,1.77
2019-01-18T03:13:00.059Z,1.77
2019-01-18T03:15:29.690Z,1.83
2019-01-18T03:17:59.240Z,1.82
2019-01-18T03:20:48.461Z,1.79
2019-01-18T03:23:18.048Z,1.72
2019-01-18T03:25:48.037Z,1.74
2019-01-18T03:28:17.750Z,1.67
2019-01-18T03:30:47.353Z,1.55
2019-01-18T03:33:16.906Z,1.58
2019-01-18T03:35:46.449Z,1.54
2019-01-18T03:38:16.030Z,1.59
2019-01-18T03:40:45.594Z,1.58
2019-01-18T03:43:15.120Z,1.55
2019-01-18T03:45:44.684Z,1.61
2019-01-18T03:48:14.385Z,1.67
2019-01-18T03:50:44.051Z,1.73
2019-01-18T03:53:13.675Z,1.75
2019-01-18T03:55:43.216Z,1.75
2019-01-18T03:58:12.744Z,1.70
2019-01-18T04:00:42.315Z,1.68
2019-01-18T04:03:11.803Z,1.65
2019-01-18T04:05:41.567Z,1.72
2019-01-18T04:08:11.107Z,1.73
2019-01-18T04:10:44.919Z,1.76
2019-01-18T04:13:22.499Z,1.80
2019-01-18T04:15:52.156Z,1.84
2019-01-18T04:18:21.668Z,1.85
2019-01-18T04:20:51.227Z,1.85
2019-01-18T04:23:20.875Z,1.85
2019-01-18T04:25:50.456Z,1.83
2019-01-18T04:28:20.025Z,1.80
2019-01-18T04:30:49.683Z,1.82
2019-01-18T04:33:19.282Z,1.78
2019-01-18T04:35:48.839Z,1.77
2019-01-18T04:38:18.360Z,1.70
2019-01-18T04:40:47.944Z,1.66
2019-01-18T04:43:17.586Z,1.64
2019-01-18T04:45:47.158Z,1.65
2019-01-18T04:48:16.670Z,1.60
2019-01-18T04:50:46.231Z,1.53
2019-01-18T04:53:16.153Z,1.44
2019-01-18T04:55:45.873Z,1.34
2019-01-18T04:58:15.554Z,1.32
2019-01-18T05:00:45.315Z,1.30
2019-01-18T05:03:16.017Z,1.28
2019-01-18T05:05:45.614Z,1.29
2019-01-18T05:08:15.202Z,1.30
2019-01-18T05:10:44.752Z,1.29
2019-01-18T05:13:15.267Z,1.30
2019-01-18T05:15:46.217Z,1.28
2019-01-18T05:18:15.762Z,1.25
2019-01-18T05:20:45.498Z,1.22
2019-01-18T05:23:15.031Z,1.20
2019-01-18T05:25:44.775Z,1.20
2019-01-18T05:28:14.368Z,1.23
2019-01-18T05:30:47.781Z,1.25
2019-01-18T05:33:15.463Z,1.26
2019-01-18T05:35:44.998Z,1.27
2019-01-18T05:38:14.542Z,1.28
2019-01-18T05:40:44.149Z,1.27
2019-01-18T05:43:13.645Z,1.28
2019-01-18T05:45:44.230Z,1.30
2019-01-18T05:48:13.869Z,1.32
2019-01-18T05:50:43.362Z,1.31
2019-01-18T05:53:13.410Z,1.31
2019-01-18T05:55:42.958Z,1.27
2019-01-18T05:58:12.510Z,1.25
2019-01-18T06:00:44.051Z,1.22
2019-01-18T06:03:13.614Z,1.19
2019-01-18T06:05:43.867Z,1.22
2019-01-18T06:08:13.512Z,1.21
2019-01-18T06:10:43.121Z,1.20
2019-01-18T06:13:12.700Z,1.19
2019-01-18T06:15:42.242Z,1.18
2019-01-18T06:18:11.989Z,1.14
2019-01-18T06:20:41.584Z,1.14
2019-01-18T06:23:11.354Z,1.13
2019-01-18T06:25:41.389Z,1.14
2019-01-18T06:28:11.159Z,1.17
2019-01-18T06:30:43.849Z,1.18
2019-01-18T06:33:13.364Z,1.16
2019-01-18T06:35:42.952Z,1.18
2019-01-18T06:38:12.520Z,1.17
2019-01-18T06:40:42.955Z,1.16
2019-01-18T06:43:12.466Z,1.14
2019-01-18T06:45:42.241Z,1.12
2019-01-18T06:48:13.426Z,1.09
2019-01-18T06:50:42.977Z,1.08
2019-01-18T06:53:12.540Z,1.11
2019-01-18T06:55:42.204Z,1.11
2019-01-18T06:58:11.788Z,1.11
2019-01-18T07:00:41.394Z,1.12
2019-01-18T07:03:10.937Z,1.13
2019-01-18T07:05:40.477Z,1.14
2019-01-18T07:08:10.005Z,1.12
2019-01-18T07:10:39.548Z,1.12
2019-01-18T07:13:09.086Z,1.14
2019-01-18T07:15:38.644Z,1.14
2019-01-18T07:18:08.176Z,1.12
2019-01-18T07:20:37.728Z,1.11
2019-01-18T07:23:07.269Z,1.14
2019-01-18T07:25:36.901Z,1.16
2019-01-18T07:28:06.667Z,1.16
2019-01-18T07:30:38.341Z,1.12
2019-01-18T07:33:10.013Z,1.10
2019-01-18T07:35:39.586Z,1.08
2019-01-18T07:38:09.223Z,1.08
2019-01-18T07:40:38.782Z,1.10
2019-01-18T07:43:08.374Z,1.12
2019-01-18T07:45:38.101Z,1.15
2019-01-18T07:48:12.118Z,1.15
2019-01-18T07:50:41.732Z,1.15
2019-01-18T07:53:11.532Z,1.13
2019-01-18T07:55:41.091Z,1.12
2019-01-18T07:58:10.651Z,1.13
2019-01-18T08:00:40.182Z,1.14
2019-01-18T08:03:09.891Z,1.17
2019-01-18T08:05:41.064Z,1.17
2019-01-18T08:08:15.931Z,1.15
2019-01-18T08:10:45.492Z,1.14
2019-01-18T08:13:15.025Z,1.15
2019-01-18T08:15:44.585Z,1.16
2019-01-18T08:18:14.118Z,1.18
2019-01-18T08:20:43.682Z,1.20
2019-01-18T08:23:13.221Z,1.24
2019-01-18T08:25:42.754Z,1.22
2019-01-18T08:28:12.359Z,1.20
2019-01-18T08:30:41.902Z,1.22
2019-01-18T08:33:11.434Z,1.22
2019-01-18T08:35:41.599Z,1.21
2019-01-18T08:38:15.352Z,1.21
2019-01-18T08:40:44.889Z,1.22
2019-01-18T08:43:15.227Z,1.25
2019-01-18T08:45:48.320Z,1.24
2019-01-18T08:48:18.204Z,1.24
2019-01-18T08:50:48.015Z,1.21
2019-01-18T08:53:17.637Z,1.23
2019-01-18T08:55:47.206Z,1.27
2019-01-18T08:58:17.087Z,1.30
2019-01-18T09:00:48.390Z,1.32
2019-01-18T09:03:17.967Z,1.36
2019-01-18T09:05:48.347Z,1.38
2019-01-18T09:08:17.890Z,1.41
2019-01-18T09:10:47.435Z,1.42
2019-01-18T09:13:18.446Z,1.46
2019-01-18T09:15:48.036Z,1.48
2019-01-18T09:18:17.597Z,1.51
2019-01-18T09:20:48.224Z,1.54
2019-01-18T09:23:17.758Z,1.57
2019-01-18T09:25:50.874Z,1.59
2019-01-18T09:28:20.103Z,1.63
2019-01-18T09:30:49.651Z,1.66
2019-01-18T09:33:19.191Z,1.71
2019-01-18T09:35:50.071Z,1.74
2019-01-18T09:38:21.254Z,1.79
2019-01-18T09:40:50.747Z,1.86
2019-01-18T09:43:20.360Z,1.90
2019-01-18T09:45:49.915Z,1.95
2019-01-18T09:48:19.474Z,2.02
2019-01-18T09:50:49.030Z,2.07
2019-01-18T09:53:18.553Z,2.08
2019-01-18T09:55:48.095Z,2.10
2019-01-18T09:58:17.653Z,2.17
2019-01-18T10:00:47.202Z,2.23
2019-01-18T10:03:16.761Z,2.32
2019-01-18T10:05:46.294Z,2.33
2019-01-18T10:08:15.880Z,2.38
2019-01-18T10:10:45.464Z,2.44
2019-01-18T10:13:15.003Z,2.47
2019-01-18T10:15:44.788Z,2.50
2019-01-18T10:18:14.348Z,2.53
2019-01-18T10:20:44.134Z,2.53
2019-01-18T10:23:13.683Z,2.58
2019-01-18T10:25:43.294Z,2.62
2019-01-18T10:28:12.831Z,2.65
2019-01-18T10:30:42.388Z,2.66
2019-01-18T10:33:11.984Z,2.64
2019-01-18T10:35:41.532Z,2.70
2019-01-18T10:38:11.093Z,2.75
2019-01-18T10:40:40.637Z,2.78
2019-01-18T10:43:10.203Z,2.73
2019-01-18T10:45:39.836Z,2.79
2019-01-18T10:48:09.446Z,2.81
2019-01-18T10:50:38.988Z,2.84
2019-01-18T10:53:08.597Z,2.86
2019-01-18T10:55:38.371Z,2.80
2019-01-18T10:58:07.920Z,2.85
2019-01-18T11:00:37.516Z,2.88
2019-01-18T11:03:07.150Z,2.88
2019-01-18T11:05:36.685Z,2.97
2019-01-18T11:08:06.299Z,2.89
2019-01-18T11:10:35.923Z,2.95
2019-01-18T11:13:05.517Z,2.98
2019-01-18T11:15:36.246Z,2.99
2019-01-18T11:18:06.118Z,2.99
2019-01-18T11:20:51.074Z,3.02
2019-01-18T11:23:20.340Z,2.99
2019-01-18T11:25:49.877Z,3.05
2019-01-18T11:28:19.410Z,3.04
2019-01-18T11:30:49.027Z,3.04
2019-01-18T11:33:18.580Z,3.03
2019-01-18T11:35:48.184Z,3.00
2019-01-18T11:38:17.709Z,3.02
2019-01-18T11:40:47.259Z,3.04
2019-01-18T11:43:16.837Z,3.11
2019-01-18T11:45:46.364Z,3.07
2019-01-18T11:48:15.908Z,3.10
2019-01-18T11:50:45.463Z,3.14
2019-01-18T11:53:15.326Z,3.19
2019-01-18T11:55:44.875Z,3.20
2019-01-18T11:58:14.399Z,3.19
2019-01-18T12:00:43.959Z,3.22
2019-01-18T12:03:13.494Z,3.28
2019-01-18T12:05:43.039Z,3.25
2019-01-18T12:08:12.637Z,3.31
2019-01-18T12:10:42.199Z,3.34
2019-01-18T12:13:11.752Z,3.30
2019-01-18T12:15:41.324Z,3.37
2019-01-18T12:18:10.907Z,3.39
2019-01-18T12:20:40.593Z,3.40
2019-01-18T12:23:10.233Z,3.44
2019-01-18T12:25:39.998Z,3.43
2019-01-18T12:28:09.607Z,3.47
2019-01-18T12:30:39.144Z,3.42
2019-01-18T12:33:08.718Z,3.48
2019-01-18T12:35:38.263Z,3.52
2019-01-18T12:38:07.812Z,3.50
2019-01-18T12:40:38.280Z,3.47
2019-01-18T12:43:07.901Z,3.52
2019-01-18T12:45:37.448Z,3.49
2019-01-18T12:48:07.183Z,3.53
2019-01-18T12:50:37.209Z,3.60
2019-01-18T12:53:06.898Z,3.59
2019-01-18T12:55:36.475Z,3.62
2019-01-18T12:58:06.182Z,3.60
2019-01-18T13:00:35.800Z,3.64
2019-01-18T13:03:05.684Z,3.63
2019-01-18T13:05:41.790Z,3.62
2019-01-18T13:08:11.324Z,3.59
2019-01-18T13:10:41.537Z,3.63
2019-01-18T13:13:11.147Z,3.66
2019-01-18T13:15:50.808Z,3.67
2019-01-18T13:18:20.350Z,3.63
2019-01-18T13:20:49.869Z,3.59
2019-01-18T13:23:19.411Z,3.66
2019-01-18T13:25:49.663Z,3.65
2019-01-18T13:28:19.206Z,3.70
2019-01-18T13:30:48.728Z,3.71
2019-01-18T13:33:18.403Z,3.75
2019-01-18T13:35:47.949Z,3.69
2019-01-18T13:38:17.478Z,3.69
2019-01-18T13:40:47.052Z,3.70
2019-01-18T13:43:16.595Z,3.67
2019-01-18T13:45:46.135Z,3.72
2019-01-18T13:48:15.672Z,3.72
2019-01-18T13:50:45.229Z,3.76
2019-01-18T13:53:14.986Z,3.77
2019-01-18T13:55:44.626Z,3.78
2019-01-18T13:58:15.946Z,3.80
2019-01-18T14:00:45.436Z,3.76
2019-01-18T14:03:14.983Z,3.71
2019-01-18T14:05:44.542Z,3.71
2019-01-18T14:08:14.084Z,3.70
2019-01-18T14:10:43.638Z,3.77
2019-01-18T14:13:15.127Z,3.73
2019-01-18T14:15:44.751Z,3.74
2019-01-18T14:18:14.275Z,3.77
2019-01-18T14:20:43.808Z,3.79
2019-01-18T14:23:13.359Z,3.81
2019-01-18T14:25:42.887Z,3.79
2019-01-18T14:28:12.433Z,3.77
2019-01-18T14:30:41.963Z,3.76
2019-01-18T14:33:11.535Z,3.77
2019-01-18T14:35:41.122Z,3.71
2019-01-18T14:38:10.648Z,3.74
2019-01-18T14:40:40.201Z,3.74
2019-01-18T14:43:09.821Z,3.75
2019-01-18T14:45:44.081Z,3.73
2019-01-18T14:48:13.632Z,3.70
2019-01-18T14:50:44.293Z,3.68
2019-01-18T14:53:13.809Z,3.66
2019-01-18T14:55:43.444Z,3.64
2019-01-18T14:58:13.129Z,3.61
2019-01-18T15:00:42.824Z,3.62
2019-01-18T15:03:13.589Z,3.59
2019-01-18T15:05:43.311Z,3.56
2019-01-18T15:08:12.850Z,3.50
2019-01-18T15:10:42.400Z,3.47
2019-01-18T15:13:14.365Z,3.44
2019-01-18T15:15:43.908Z,3.43
2019-01-18T15:18:13.528Z,3.40
2019-01-18T15:20:43.065Z,3.36
2019-01-18T15:23:12.911Z,3.33
2019-01-18T15:25:42.484Z,3.29
2019-01-18T15:28:12.019Z,3.22
2019-01-18T15:30:41.592Z,3.20
2019-01-18T15:33:11.115Z,3.18
2019-01-18T15:35:40.701Z,3.16
2019-01-18T15:38:10.513Z,3.15
2019-01-18T15:40:43.453Z,3.15
2019-01-18T15:43:14.641Z,3.11
2019-01-18T15:45:44.230Z,3.08
2019-01-18T15:48:13.828Z,3.05
2019-01-18T15:50:43.366Z,3.03
2019-01-18T15:53:12.976Z,2.98
2019-01-18T15:55:42.635Z,2.89
2019-01-18T15:58:12.277Z,2.93
2019-01-18T16:00:43.162Z,2.90
2019-01-18T16:03:16.066Z,2.84
2019-01-18T16:05:44.611Z,2.82
2019-01-18T16:08:14.532Z,2.79
2019-01-18T16:10:44.068Z,2.77
2019-01-18T16:13:13.593Z,2.74
2019-01-18T16:15:50.532Z,2.72
2019-01-18T16:18:25.143Z,2.70
2019-01-18T16:20:54.754Z,2.68
2019-01-18T16:23:24.290Z,2.65
2019-01-18T16:25:53.811Z,2.61
2019-01-18T16:28:23.369Z,2.57
2019-01-18T16:30:52.961Z,2.55
2019-01-18T16:33:23.593Z,2.51
2019-01-18T16:35:53.299Z,2.51
2019-01-18T16:38:22.836Z,2.49
2019-01-18T16:40:52.383Z,2.46
2019-01-18T16:43:29.882Z,2.44
2019-01-18T16:45:59.456Z,2.42
2019-01-18T16:48:29.022Z,2.37
2019-01-18T16:50:58.516Z,2.36
2019-01-18T16:53:28.072Z,2.35
2019-01-18T16:57:24.699Z,2.33
2019-01-18T16:59:54.252Z,2.32
2019-01-18T17:02:23.775Z,2.27
2019-01-18T17:04:53.834Z,2.25
2019-01-18T17:07:23.452Z,2.22
2019-01-18T17:09:52.976Z,2.17
2019-01-18T17:12:22.529Z,2.11
2019-01-18T17:14:52.060Z,2.05
2019-01-18T17:17:21.606Z,2.01
2019-01-18T17:19:51.158Z,1.97
2019-01-18T17:22:20.679Z,1.96
2019-01-18T17:24:50.234Z,1.93
2019-01-18T17:27:19.781Z,1.88
2019-01-18T17:29:49.465Z,1.84
2019-01-18T17:32:19.019Z,1.80
2019-01-18T17:34:48.553Z,1.77
2019-01-18T17:37:18.272Z,1.74
2019-01-18T17:39:48.083Z,1.70
2019-01-18T17:42:31.261Z,1.60
2019-01-18T17:45:33.651Z,1.52
2019-01-18T17:48:16.632Z,1.46
2019-01-18T17:51:09.163Z,1.44
2019-01-18T17:54:01.322Z,1.43
2019-01-18T17:56:47.695Z,1.38
2019-01-18T17:59:40.060Z,1.36
2019-01-18T18:02:35.132Z,1.32
2019-01-18T18:05:50.417Z,1.30
2019-01-18T18:08:30.273Z,1.32
2019-01-18T18:11:15.814Z,1.32
2019-01-18T18:13:58.633Z,1.30
2019-01-18T18:16:41.649Z,1.30
2019-01-18T18:19:35.178Z,1.31
2019-01-18T18:22:33.109Z,1.30
2019-01-18T18:25:13.227Z,1.23
2019-01-18T18:28:08.879Z,1.05
2019-01-18T18:30:54.734Z,0.97
2019-01-18T18:34:04.772Z,0.95
2019-01-18T18:36:53.692Z,0.95
2019-01-18T18:40:03.822Z,0.98
2019-01-18T18:42:38.103Z,0.97
2019-01-18T18:45:43.816Z,0.98
2019-01-18T18:48:35.745Z,0.96
2019-01-18T18:51:24.561Z,0.89
2019-01-18T18:54:33.199Z,0.82
2019-01-18T18:57:12.970Z,0.78
2019-01-18T18:59:59.018Z,0.77
2019-01-18T19:02:36.007Z,0.76
2019-01-18T19:05:21.821Z,0.71
2019-01-18T19:08:14.258Z,0.66
2019-01-18T19:11:03.151Z,0.58
2019-01-18T19:13:43.189Z,0.52
2019-01-18T19:16:35.140Z,0.49
2019-01-18T19:19:38.727Z,0.50
2019-01-18T19:22:21.323Z,0.50
2019-01-18T19:25:34.451Z,0.51
2019-01-18T19:28:32.621Z,0.53
2019-01-18T19:31:36.977Z,0.56
2019-01-18T19:34:25.789Z,0.60
2019-01-18T19:37:20.701Z,0.62
2019-01-18T19:40:06.861Z,0.60
2019-01-18T19:43:00.678Z,0.56
2019-01-18T19:45:51.790Z,0.55
2019-01-18T19:48:55.944Z,0.60
2019-01-18T19:51:47.568Z,0.62
2019-01-18T19:54:39.468Z,0.56
2019-01-18T19:57:22.331Z,0.50
2019-01-18T20:00:11.756Z,0.48
2019-01-18T20:02:57.810Z,0.44
2019-01-18T20:05:40.767Z,0.45
2019-01-18T20:08:20.402Z,0.36
2019-01-18T20:11:27.502Z,0.32
2019-01-18T20:14:22.844Z,0.34
2019-01-18T20:17:14.660Z,0.37
2019-01-18T20:20:00.200Z,0.43
2019-01-18T20:23:02.875Z,0.50
2019-01-18T20:25:45.507Z,0.58
2019-01-18T20:28:34.525Z,0.64
2019-01-18T20:31:26.487Z,0.62
2019-01-18T20:34:21.668Z,0.56
2019-01-18T20:37:10.485Z,0.48
2019-01-18T20:39:59.869Z,0.41
2019-01-18T20:43:08.137Z,0.34
2019-01-18T20:46:10.607Z,0.26
2019-01-18T20:48:47.589Z,0.30
2019-01-18T20:51:36.398Z,0.35
2019-01-18T20:54:44.916Z,0.37
2019-01-18T20:57:30.115Z,0.32
2019-01-18T21:00:29.060Z,0.32
2019-01-18T21:03:03.497Z,0.27
2019-01-18T21:06:13.367Z,0.19
2019-01-18T21:09:18.954Z,0.21
2019-01-18T21:11:59.516Z,0.28
2019-01-18T21:15:11.170Z,0.29
2019-01-18T21:17:48.144Z,0.35
2019-01-18T21:20:31.071Z,0.34
2019-01-18T21:23:16.746Z,0.26
2019-01-18T21:26:23.644Z,0.21
2019-01-18T21:29:19.749Z,0.24
2019-01-18T21:32:11.080Z,0.28
2019-01-18T21:34:45.329Z,0.35
2019-01-18T21:37:40.278Z,0.32
2019-01-18T21:40:26.202Z,0.31
2019-01-18T21:43:25.692Z,0.28
2019-01-18T21:46:14.743Z,0.28
2019-01-18T21:49:09.891Z,0.34
2019-01-18T21:52:02.272Z,0.35
2019-01-18T21:55:18.689Z,0.38
2019-01-18T21:58:04.423Z,0.39
2019-01-18T22:00:50.288Z,0.37
2019-01-18T22:03:35.985Z,0.35
2019-01-18T22:06:18.165Z,0.38
2019-01-18T22:09:20.204Z,0.45
2019-01-18T22:12:05.935Z,0.49
2019-01-18T22:15:00.742Z,0.52
2019-01-18T22:17:58.713Z,0.47
2019-01-18T22:20:53.858Z,0.47
2019-01-18T22:23:42.602Z,0.47
2019-01-18T22:26:35.933Z,0.47
2019-01-18T22:29:21.882Z,0.46
2019-01-18T22:31:56.165Z,0.45
2019-01-18T22:34:59.118Z,0.44
2019-01-18T22:37:53.508Z,0.43
2019-01-18T22:40:59.200Z,0.38
2019-01-18T22:43:36.560Z,0.32
2019-01-18T22:46:30.036Z,0.22
2019-01-18T22:49:29.607Z,0.13
2019-01-18T22:52:44.392Z,0.08
2019-01-18T22:55:39.462Z,0.01
2019-01-18T22:58:34.108Z,-0.04
2019-01-18T23:01:27.981Z,-0.09
2019-01-18T23:04:31.707Z,-0.08
2019-01-18T23:07:11.458Z,-0.08
2019-01-18T23:09:48.636Z,-0.12
2019-01-18T23:12:52.408Z,-0.12
2019-01-18T23:15:29.328Z,-0.15
2019-01-18T23:18:20.527Z,-0.12
2019-01-18T23:21:26.483Z,-0.09
2019-01-18T23:24:00.761Z,-0.07
2019-01-18T23:27:00.432Z,-0.04
2019-01-18T23:29:46.636Z,0.00
2019-01-18T23:32:39.934Z,0.00
2019-01-18T23:35:37.511Z,-0.03
2019-01-18T23:38:38.299Z,-0.09
2019-01-18T23:41:40.958Z,-0.15
2019-01-18T23:44:29.384Z,-0.16
2019-01-18T23:47:16.096Z,-0.26
2019-01-18T23:50:17.359Z,-0.35
2019-01-18T23:53:01.383Z,-0.34
2019-01-18T23:55:41.420Z,-0.36
2019-01-18T23:58:30.657Z,-0.37
